createdAt,value
2019-05-03T00:00:57.134Z,4.31
2019-05-03T00:03:22.925Z,4.32
2019-05-03T00:05:50.105Z,4.26
2019-05-03T00:08:15.995Z,4.25
2019-05-03T00:10:42.543Z,4.18
2019-05-03T00:13:08.577Z,4.10
2019-05-03T00:15:36.357Z,4.11
2019-05-03T00:18:02.460Z,4.05
2019-05-03T00:20:28.244Z,4.15
2019-05-03T00:22:54.016Z,4.14
2019-05-03T00:25:21.970Z,4.13
2019-05-03T00:27:47.492Z,4.07
2019-05-03T00:30:13.286Z,4.11
2019-05-03T00:32:39.066Z,3.99
2019-05-03T00:35:15.812Z,4.03
2019-05-03T00:37:46.010Z,4.07
2019-05-03T00:40:13.803Z,4.05
2019-05-03T00:42:39.588Z,4.00
2019-05-03T00:45:06.097Z,3.97
2019-05-03T00:47:32.893Z,3.90
2019-05-03T00:49:58.786Z,3.90
2019-05-03T00:52:24.578Z,3.94
2019-05-03T00:54:50.369Z,3.94
2019-05-03T00:57:16.153Z,3.99
2019-05-03T00:59:42.102Z,3.92
2019-05-03T01:02:07.923Z,3.89
2019-05-03T01:04:33.813Z,3.76
2019-05-03T01:06:59.683Z,3.82
2019-05-03T01:09:25.583Z,3.80
2019-05-03T01:11:52.462Z,3.87
2019-05-03T01:14:18.347Z,3.88
2019-05-03T01:16:44.139Z,3.82
2019-05-03T01:19:11.960Z,3.72
2019-05-03T01:21:37.636Z,3.78
2019-05-03T01:24:03.411Z,3.79
2019-05-03T01:26:29.210Z,3.73
2019-05-03T01:28:54.991Z,3.73
2019-05-03T01:31:22.673Z,3.73
2019-05-03T01:33:48.466Z,3.63
2019-05-03T01:36:14.354Z,3.67
2019-05-03T01:38:42.203Z,3.60
2019-05-03T01:41:07.817Z,3.56
2019-05-03T01:43:33.602Z,3.52
2019-05-03T01:45:59.391Z,3.50
2019-05-03T01:48:32.888Z,3.46
2019-05-03T01:51:02.752Z,3.41
2019-05-03T01:53:32.135Z,3.49
2019-05-03T01:55:57.866Z,3.47
2019-05-03T01:58:23.650Z,3.53
2019-05-03T02:00:54.861Z,3.48
2019-05-03T02:03:34.140Z,3.43
2019-05-03T02:05:59.938Z,3.43
2019-05-03T02:08:25.799Z,3.39
2019-05-03T02:10:51.862Z,3.33
2019-05-03T02:13:17.680Z,3.41
2019-05-03T02:15:43.460Z,3.43
2019-05-03T02:18:09.252Z,3.49
2019-05-03T02:20:35.026Z,3.41
2019-05-03T02:23:02.567Z,3.41
2019-05-03T02:25:28.500Z,3.35
2019-05-03T02:27:54.291Z,3.36
2019-05-03T02:30:20.064Z,3.38
2019-05-03T02:32:45.867Z,3.36
2019-05-03T02:35:13.961Z,3.36
2019-05-03T02:37:43.883Z,3.33
2019-05-03T02:40:09.521Z,3.30
2019-05-03T02:42:35.685Z,3.38
2019-05-03T02:45:01.942Z,3.41
2019-05-03T02:47:29.709Z,3.34
2019-05-03T02:49:57.432Z,3.37
2019-05-03T02:52:36.937Z,3.29
2019-05-03T02:55:06.117Z,3.29
2019-05-03T02:57:32.168Z,3.23
2019-05-03T02:59:57.947Z,3.23
2019-05-03T03:02:26.319Z,3.21
2019-05-03T03:04:51.522Z,3.19
2019-05-03T03:07:17.500Z,3.15
2019-05-03T03:09:45.295Z,3.16
2019-05-03T03:12:15.236Z,3.22
2019-05-03T03:14:45.526Z,3.21
2019-05-03T03:17:12.295Z,3.27
2019-05-03T03:19:38.194Z,3.26
2019-05-03T03:22:06.194Z,3.29
2019-05-03T03:24:32.765Z,3.37
2019-05-03T03:27:00.438Z,3.39
2019-05-03T03:29:26.474Z,3.38
2019-05-03T03:31:58.104Z,3.35
2019-05-03T03:37:01.014Z,3.42
2019-05-03T03:39:21.588Z,3.41
2019-05-03T03:44:15.255Z,3.45
2019-05-03T03:46:45.287Z,3.34
2019-05-03T03:49:10.715Z,3.47
2019-05-03T03:51:37.901Z,3.44
2019-05-03T03:54:06.031Z,3.45
2019-05-03T03:56:37.186Z,3.46
2019-05-03T03:59:01.067Z,3.48
2019-05-03T04:01:26.965Z,3.41
2019-05-03T04:03:52.734Z,3.48
2019-05-03T04:06:18.528Z,3.48
2019-05-03T04:08:45.355Z,3.48
2019-05-03T04:11:11.292Z,3.53
2019-05-03T04:13:38.480Z,3.50
2019-05-03T04:16:09.191Z,3.44
2019-05-03T04:18:52.124Z,3.48
2019-05-03T04:21:20.013Z,3.41
2019-05-03T04:23:45.980Z,3.50
2019-05-03T04:26:11.786Z,3.52
2019-05-03T04:28:37.855Z,3.55
2019-05-03T04:31:06.016Z,3.64
2019-05-03T04:33:31.321Z,3.63
2019-05-03T04:35:57.119Z,3.65
2019-05-03T04:38:25.600Z,3.68
2019-05-03T04:40:51.419Z,3.64
2019-05-03T04:43:17.212Z,3.71
2019-05-03T04:45:45.633Z,3.78
2019-05-03T04:48:11.480Z,4.00
2019-05-03T04:50:37.285Z,4.12
2019-05-03T04:53:05.621Z,4.26
2019-05-03T04:55:30.729Z,4.33
2019-05-03T04:57:56.526Z,4.38
2019-05-03T05:00:25.364Z,4.49
2019-05-03T05:02:49.966Z,4.56
2019-05-03T05:05:15.739Z,4.65
2019-05-03T05:07:41.527Z,4.60
2019-05-03T05:10:07.299Z,4.67
2019-05-03T05:12:35.413Z,4.74
2019-05-03T05:15:00.763Z,4.86
2019-05-03T05:17:31.209Z,4.89
2019-05-03T05:19:58.890Z,4.95
2019-05-03T05:22:26.585Z,5.01
2019-05-03T05:24:52.394Z,5.02
2019-05-03T05:27:25.895Z,5.05
2019-05-03T05:29:51.873Z,5.14
2019-05-03T05:32:17.675Z,5.18
2019-05-03T05:34:43.450Z,5.28
2019-05-03T05:37:09.235Z,5.19
2019-05-03T05:39:35.595Z,5.37
2019-05-03T05:42:01.498Z,5.38
2019-05-03T05:44:27.300Z,5.43
2019-05-03T05:47:00.672Z,5.54
2019-05-03T05:49:44.537Z,5.68
2019-05-03T05:52:10.301Z,5.66
2019-05-03T05:54:37.967Z,5.86
2019-05-03T05:57:25.485Z,6.04
2019-05-03T06:00:08.207Z,6.25
2019-05-03T06:02:35.901Z,6.05
2019-05-03T06:05:04.847Z,5.97
2019-05-03T06:07:44.385Z,5.87
2019-05-03T06:10:14.682Z,5.80
2019-05-03T06:12:47.768Z,5.93
2019-05-03T06:15:34.481Z,6.02
2019-05-03T06:18:02.240Z,6.02
2019-05-03T06:20:32.684Z,6.05
2019-05-03T06:23:00.909Z,6.14
2019-05-03T06:25:31.479Z,6.21
2019-05-03T06:27:57.752Z,6.36
2019-05-03T06:30:41.770Z,6.38
2019-05-03T06:33:07.552Z,6.52
2019-05-03T06:35:34.592Z,6.69
2019-05-03T06:38:00.423Z,6.76
2019-05-03T06:40:26.251Z,6.74
2019-05-03T06:42:54.899Z,6.81
2019-05-03T06:45:19.687Z,6.93
2019-05-03T06:47:49.746Z,6.96
2019-05-03T06:50:14.635Z,7.07
2019-05-03T06:52:40.430Z,7.14
2019-05-03T06:55:10.517Z,7.14
2019-05-03T06:57:40.164Z,7.29
2019-05-03T07:00:19.107Z,7.50
2019-05-03T07:02:55.576Z,7.67
2019-05-03T07:05:25.031Z,7.63
2019-05-03T07:08:09.042Z,7.44
2019-05-03T07:10:39.576Z,7.44
2019-05-03T07:13:08.613Z,7.43
2019-05-03T07:15:34.978Z,7.56
2019-05-03T07:18:00.774Z,7.61
2019-05-03T07:20:26.663Z,7.63
2019-05-03T07:22:55.537Z,7.87
2019-05-03T07:25:21.535Z,7.99
2019-05-03T07:27:47.324Z,7.93
2019-05-03T07:30:13.124Z,8.27
2019-05-03T07:32:40.800Z,8.88
2019-05-03T07:35:06.807Z,8.76
2019-05-03T07:37:34.727Z,7.91
2019-05-03T07:40:00.283Z,7.91
2019-05-03T07:42:26.058Z,7.90
2019-05-03T07:44:51.864Z,7.63
2019-05-03T07:47:17.643Z,7.49
2019-05-03T07:49:44.739Z,7.46
2019-05-03T07:52:11.878Z,7.90
2019-05-03T07:54:37.724Z,8.53
2019-05-03T07:57:05.416Z,8.53
2019-05-03T07:59:31.197Z,8.78
2019-05-03T08:01:57.995Z,8.92
2019-05-03T08:04:25.546Z,9.43
2019-05-03T08:06:51.492Z,9.33
2019-05-03T08:09:17.272Z,9.43
2019-05-03T08:11:44.429Z,9.25
2019-05-03T08:14:10.245Z,9.65
2019-05-03T08:16:36.032Z,9.25
2019-05-03T08:19:01.914Z,9.05
2019-05-03T08:21:27.709Z,9.20
2019-05-03T08:23:55.474Z,9.13
2019-05-03T08:26:21.200Z,9.20
2019-05-03T08:28:46.975Z,9.36
2019-05-03T08:31:15.109Z,9.40
2019-05-03T08:33:48.364Z,9.59
2019-05-03T08:36:15.649Z,9.88
2019-05-03T08:38:41.535Z,9.80
2019-05-03T08:41:09.214Z,9.65
2019-05-03T08:43:35.799Z,9.91
2019-05-03T08:46:01.689Z,10.38
2019-05-03T08:48:27.470Z,10.38
2019-05-03T08:50:55.286Z,10.73
2019-05-03T08:53:20.930Z,9.82
2019-05-03T08:55:46.718Z,9.33
2019-05-03T08:58:12.512Z,9.33
2019-05-03T09:00:40.183Z,9.00
2019-05-03T09:03:05.982Z,9.02
2019-05-03T09:05:31.771Z,8.84
2019-05-03T09:07:57.572Z,9.16
2019-05-03T09:10:25.239Z,9.45
2019-05-03T09:13:10.634Z,9.85
2019-05-03T09:15:37.908Z,9.82
2019-05-03T09:18:04.832Z,10.41
2019-05-03T09:20:32.371Z,9.70
2019-05-03T09:22:58.255Z,8.44
2019-05-03T09:25:24.777Z,8.06
2019-05-03T09:27:50.640Z,7.76
2019-05-03T09:30:16.984Z,7.95
2019-05-03T09:32:44.799Z,9.18
2019-05-03T09:35:12.360Z,9.74
2019-05-03T09:37:38.137Z,10.53
2019-05-03T09:40:04.728Z,10.10
2019-05-03T09:42:30.514Z,8.64
2019-05-03T09:44:56.316Z,7.77
2019-05-03T09:47:22.086Z,7.29
2019-05-03T09:49:47.866Z,7.17
2019-05-03T09:52:16.113Z,8.04
2019-05-03T09:54:45.266Z,8.84
2019-05-03T09:57:11.013Z,8.90
2019-05-03T09:59:36.812Z,9.27
2019-05-03T10:02:04.750Z,9.62
2019-05-03T10:04:30.383Z,10.13
2019-05-03T10:06:56.157Z,10.34
2019-05-03T10:09:21.944Z,11.39
2019-05-03T10:11:47.777Z,10.69
2019-05-03T10:14:15.448Z,10.59
2019-05-03T10:16:49.044Z,10.90
2019-05-03T10:19:16.248Z,10.90
2019-05-03T10:21:44.879Z,10.57
2019-05-03T10:24:10.719Z,10.28
2019-05-03T10:26:36.521Z,10.28
2019-05-03T10:29:02.386Z,10.98
2019-05-03T10:31:30.147Z,10.80
2019-05-03T10:34:05.567Z,11.00
2019-05-03T10:36:30.854Z,11.37
2019-05-03T10:38:56.628Z,11.30
2019-05-03T10:41:22.419Z,11.47
2019-05-03T10:43:48.210Z,11.51
2019-05-03T10:46:16.006Z,10.36
2019-05-03T10:48:41.682Z,9.30
2019-05-03T10:51:07.486Z,8.93
2019-05-03T10:53:35.172Z,9.05
2019-05-03T10:56:22.709Z,8.67
2019-05-03T10:58:48.483Z,8.29
2019-05-03T11:01:16.186Z,8.43
2019-05-03T11:03:41.976Z,8.29
2019-05-03T11:06:07.773Z,8.52
2019-05-03T11:08:33.556Z,8.49
2019-05-03T11:10:59.374Z,9.02
2019-05-03T11:13:26.432Z,9.39
2019-05-03T11:15:52.364Z,9.40
2019-05-03T11:18:18.155Z,9.61
2019-05-03T11:20:45.271Z,9.68
2019-05-03T11:23:11.233Z,9.89
2019-05-03T11:25:37.015Z,10.23
2019-05-03T11:28:05.912Z,10.71
2019-05-03T11:30:31.699Z,10.50
2019-05-03T11:32:59.397Z,10.78
2019-05-03T11:35:34.970Z,10.50
2019-05-03T11:38:08.268Z,11.13
2019-05-03T11:40:34.587Z,10.44
2019-05-03T11:43:02.150Z,10.00
2019-05-03T11:45:27.939Z,9.75
2019-05-03T11:47:55.090Z,9.75
2019-05-03T11:50:20.922Z,9.58
2019-05-03T11:52:47.324Z,10.22
2019-05-03T11:55:15.740Z,10.29
2019-05-03T11:57:40.879Z,10.20
2019-05-03T12:00:07.858Z,10.20
2019-05-03T12:02:35.553Z,11.05
2019-05-03T12:05:11.873Z,11.51
2019-05-03T12:07:39.868Z,11.49
2019-05-03T12:10:16.169Z,11.09
2019-05-03T12:12:35.409Z,10.95
2019-05-03T12:15:01.170Z,10.67
2019-05-03T12:17:52.928Z,10.65
2019-05-03T12:20:13.132Z,10.49
2019-05-03T12:22:39.748Z,9.93
2019-05-03T12:25:10.023Z,10.34
2019-05-03T12:27:34.975Z,9.95
2019-05-03T12:30:00.758Z,9.48
2019-05-03T12:32:26.536Z,9.20
2019-05-03T12:34:52.336Z,9.23
2019-05-03T12:37:18.112Z,8.38
2019-05-03T12:39:43.913Z,8.17
2019-05-03T12:42:09.698Z,7.97
2019-05-03T12:44:35.649Z,8.11
2019-05-03T12:47:02.672Z,8.52
2019-05-03T12:49:28.687Z,8.79
2019-05-03T12:51:55.822Z,8.74
2019-05-03T12:54:21.674Z,8.87
2019-05-03T12:56:47.433Z,9.07
2019-05-03T12:59:23.671Z,9.56
2019-05-03T13:01:51.382Z,9.50
2019-05-03T13:04:21.861Z,8.99
2019-05-03T13:06:49.543Z,8.79
2019-05-03T13:09:15.985Z,9.10
2019-05-03T13:11:52.924Z,9.53
2019-05-03T13:14:11.454Z,9.61
2019-05-03T13:16:37.228Z,9.82
2019-05-03T13:19:03.001Z,9.49
2019-05-03T13:21:28.782Z,9.64
2019-05-03T13:23:54.912Z,9.24
2019-05-03T13:26:20.762Z,9.64
2019-05-03T13:28:46.537Z,9.94
2019-05-03T13:31:12.330Z,10.05
2019-05-03T13:33:38.103Z,10.00
2019-05-03T13:36:03.994Z,9.40
2019-05-03T13:38:29.766Z,9.57
2019-05-03T13:40:55.557Z,9.65
2019-05-03T13:43:21.332Z,9.35
2019-05-03T13:45:47.142Z,9.64
2019-05-03T13:48:15.267Z,9.80
2019-05-03T13:50:40.648Z,9.63
2019-05-03T13:53:06.423Z,9.92
2019-05-03T13:55:32.210Z,10.54
2019-05-03T13:57:57.991Z,10.53
2019-05-03T14:00:24.699Z,11.00
2019-05-03T14:02:50.579Z,10.97
2019-05-03T14:05:16.362Z,10.12
2019-05-03T14:07:42.159Z,10.37
2019-05-03T14:10:08.036Z,10.64
2019-05-03T14:12:35.089Z,10.84
2019-05-03T14:15:01.011Z,10.42
2019-05-03T14:17:28.207Z,10.51
2019-05-03T14:20:07.841Z,10.33
2019-05-03T14:22:35.846Z,9.96
2019-05-03T14:25:01.658Z,10.22
2019-05-03T14:27:27.444Z,10.44
2019-05-03T14:29:54.893Z,9.80
2019-05-03T14:32:28.364Z,9.19
2019-05-03T14:34:48.417Z,8.37
2019-05-03T14:37:14.200Z,7.04
2019-05-03T14:39:39.971Z,6.59
2019-05-03T14:42:05.767Z,6.93
2019-05-03T14:44:31.569Z,7.33
2019-05-03T14:46:59.158Z,7.59
2019-05-03T14:49:25.423Z,7.83
2019-05-03T14:51:51.350Z,7.80
2019-05-03T14:54:17.434Z,7.60
2019-05-03T14:56:53.943Z,7.64
2019-05-03T14:59:37.979Z,7.68
2019-05-03T15:02:05.681Z,7.00
2019-05-03T15:04:31.559Z,6.44
2019-05-03T15:06:57.961Z,6.48
2019-05-03T15:09:25.150Z,6.78
2019-05-03T15:11:51.007Z,6.81
2019-05-03T15:14:16.803Z,7.12
2019-05-03T15:16:42.577Z,7.19
2019-05-03T15:19:08.372Z,7.29
2019-05-03T15:21:34.636Z,7.33
2019-05-03T15:24:00.447Z,7.56
2019-05-03T15:26:26.225Z,7.74
2019-05-03T15:28:52.051Z,7.83
2019-05-03T15:31:17.828Z,8.09
2019-05-03T15:33:44.936Z,8.43
2019-05-03T15:36:11.083Z,8.52
2019-05-03T15:38:36.976Z,8.49
2019-05-03T15:41:02.763Z,8.62
2019-05-03T15:43:47.614Z,8.66
2019-05-03T15:46:15.298Z,8.94
2019-05-03T15:48:43.001Z,8.94
2019-05-03T15:51:08.791Z,8.68
2019-05-03T15:53:35.317Z,8.50
2019-05-03T15:56:01.261Z,8.35
2019-05-03T15:58:27.052Z,8.33
2019-05-03T16:00:55.163Z,8.44
2019-05-03T16:03:20.544Z,8.62
2019-05-03T16:05:46.339Z,8.45
2019-05-03T16:08:12.127Z,8.65
2019-05-03T16:10:37.921Z,8.60
2019-05-03T16:13:04.833Z,8.60
2019-05-03T16:15:30.717Z,8.39
2019-05-03T16:17:56.500Z,8.39
2019-05-03T16:20:22.296Z,8.37
2019-05-03T16:22:48.070Z,8.40
2019-05-03T16:25:14.303Z,8.32
2019-05-03T16:27:42.051Z,8.45
2019-05-03T16:30:26.524Z,8.25
2019-05-03T16:32:52.316Z,8.15
2019-05-03T16:35:18.112Z,8.15
2019-05-03T16:37:45.215Z,8.19
2019-05-03T16:40:11.083Z,7.33
2019-05-03T16:42:36.862Z,7.33
2019-05-03T16:45:05.452Z,6.99
2019-05-03T16:47:31.202Z,6.62
2019-05-03T16:49:56.999Z,6.56
2019-05-03T16:52:22.783Z,6.71
2019-05-03T16:54:48.563Z,6.67
2019-05-03T16:57:17.511Z,6.53
2019-05-03T16:59:44.376Z,6.45
2019-05-03T17:02:10.144Z,6.19
2019-05-03T17:04:40.591Z,6.01
2019-05-03T17:07:17.116Z,6.13
2019-05-03T17:09:44.796Z,6.13
2019-05-03T17:12:12.484Z,6.05
2019-05-03T17:14:38.272Z,6.13
2019-05-03T17:17:04.693Z,5.98
2019-05-03T17:19:31.860Z,5.98
2019-05-03T17:21:58.331Z,6.04
2019-05-03T17:24:24.879Z,6.24
2019-05-03T17:26:51.841Z,6.39
2019-05-03T17:29:18.026Z,6.15
2019-05-03T17:31:44.464Z,6.37
2019-05-03T17:34:10.825Z,6.38
2019-05-03T17:36:36.658Z,6.25
2019-05-03T17:39:05.517Z,6.07
2019-05-03T17:41:39.345Z,6.21
2019-05-03T17:44:07.041Z,5.65
2019-05-03T17:46:34.763Z,5.90
2019-05-03T17:49:00.608Z,5.88
2019-05-03T17:51:39.972Z,5.68
2019-05-03T17:54:16.284Z,5.60
2019-05-03T17:57:01.909Z,5.65
2019-05-03T17:59:29.579Z,5.74
2019-05-03T18:02:15.332Z,5.67
2019-05-03T18:04:59.336Z,5.68
2019-05-03T18:07:27.037Z,5.74
2019-05-03T18:09:55.367Z,5.73
2019-05-03T18:12:21.208Z,5.64
2019-05-03T18:14:47.008Z,5.66
2019-05-03T18:17:14.624Z,5.68
2019-05-03T18:19:40.481Z,5.71
2019-05-03T18:22:06.372Z,5.70
2019-05-03T18:24:32.145Z,5.76
2019-05-03T18:26:57.962Z,5.67
2019-05-03T18:29:25.269Z,5.71
2019-05-03T18:31:51.132Z,5.71
2019-05-03T18:34:19.915Z,5.71
2019-05-03T18:36:45.055Z,5.65
2019-05-03T18:39:11.387Z,5.56
2019-05-03T18:41:37.173Z,5.57
2019-05-03T18:44:16.497Z,5.61
2019-05-03T18:46:44.575Z,5.55
2019-05-03T18:49:10.471Z,5.43
2019-05-03T18:51:36.343Z,5.31
2019-05-03T18:54:04.649Z,5.24
2019-05-03T18:56:29.812Z,5.23
2019-05-03T18:58:55.605Z,5.24
2019-05-03T19:01:21.418Z,5.17
2019-05-03T19:03:49.122Z,5.19
2019-05-03T19:06:15.094Z,5.31
2019-05-03T19:08:44.555Z,5.27
2019-05-03T19:11:12.488Z,5.29
2019-05-03T19:13:41.577Z,5.25
2019-05-03T19:16:09.367Z,5.19
2019-05-03T19:18:37.061Z,5.10
2019-05-03T19:21:04.614Z,5.06
2019-05-03T19:23:30.473Z,4.99
2019-05-03T19:25:56.285Z,4.89
2019-05-03T19:28:22.073Z,4.88
2019-05-03T19:30:48.062Z,4.75
2019-05-03T19:33:13.861Z,4.82
2019-05-03T19:35:39.645Z,4.77
2019-05-03T19:38:05.417Z,4.68
2019-05-03T19:40:31.216Z,4.57
2019-05-03T19:42:57.000Z,4.60
2019-05-03T19:45:24.760Z,4.65
2019-05-03T19:47:50.487Z,4.44
2019-05-03T19:50:16.274Z,4.37
2019-05-03T19:52:55.612Z,4.36
2019-05-03T19:55:21.403Z,4.44
2019-05-03T19:57:47.507Z,4.50
2019-05-03T20:00:14.922Z,4.43
2019-05-03T20:02:45.518Z,4.52
2019-05-03T20:05:25.343Z,4.32
2019-05-03T20:08:07.838Z,4.26
2019-05-03T20:10:35.090Z,4.25
2019-05-03T20:13:01.117Z,4.17
2019-05-03T20:15:27.034Z,4.13
2019-05-03T20:17:59.259Z,4.12
2019-05-03T20:20:20.511Z,4.21
2019-05-03T20:22:47.751Z,4.14
2019-05-03T20:25:15.186Z,4.12
2019-05-03T20:27:41.055Z,4.24
2019-05-03T20:30:06.945Z,4.20
2019-05-03T20:32:34.503Z,4.13
2019-05-03T20:35:11.168Z,4.08
2019-05-03T20:37:28.100Z,4.07
2019-05-03T20:39:54.496Z,4.04
2019-05-03T20:42:28.362Z,3.96
2019-05-03T20:44:56.074Z,3.86
2019-05-03T20:47:29.667Z,3.79
2019-05-03T20:50:15.298Z,3.80
2019-05-03T20:52:41.586Z,3.73
2019-05-03T20:55:07.359Z,3.69
2019-05-03T20:57:35.196Z,3.58
2019-05-03T21:00:01.032Z,3.58
2019-05-03T21:02:26.847Z,3.53
2019-05-03T21:04:52.645Z,3.53
2019-05-03T21:07:18.501Z,3.47
2019-05-03T21:09:45.573Z,3.49
2019-05-03T21:12:11.518Z,3.48
2019-05-03T21:14:37.296Z,3.57
2019-05-03T21:17:04.994Z,3.60
2019-05-03T21:19:41.195Z,3.51
2019-05-03T21:22:08.881Z,3.44
2019-05-03T21:24:36.554Z,3.34
2019-05-03T21:27:02.372Z,3.26
2019-05-03T21:29:28.121Z,3.29
2019-05-03T21:31:55.227Z,3.27
2019-05-03T21:34:21.097Z,3.22
2019-05-03T21:36:46.895Z,3.21
2019-05-03T21:39:14.517Z,3.13
2019-05-03T21:41:40.367Z,3.17
2019-05-03T21:44:06.229Z,3.16
2019-05-03T21:46:48.530Z,3.12
2019-05-03T21:49:19.122Z,3.10
2019-05-03T21:51:45.117Z,3.07
2019-05-03T21:54:12.423Z,3.06
2019-05-03T21:56:38.271Z,2.96
2019-05-03T21:59:05.565Z,3.03
2019-05-03T22:01:34.975Z,3.01
2019-05-03T22:04:00.283Z,2.92
2019-05-03T22:06:26.067Z,2.96
2019-05-03T22:08:51.859Z,2.91
2019-05-03T22:11:17.740Z,2.90
2019-05-03T22:13:46.226Z,2.88
2019-05-03T22:16:31.083Z,2.88
2019-05-03T22:19:00.274Z,2.88
2019-05-03T22:21:28.067Z,2.88
2019-05-03T22:24:14.837Z,2.83
2019-05-03T22:26:54.159Z,2.86
2019-05-03T22:29:19.951Z,2.78
2019-05-03T22:31:46.154Z,2.72
2019-05-03T22:34:11.954Z,2.84
2019-05-03T22:36:37.733Z,2.88
2019-05-03T22:39:05.319Z,2.91
2019-05-03T22:41:31.108Z,2.81
2019-05-03T22:43:56.923Z,2.75
2019-05-03T22:46:22.697Z,2.79
2019-05-03T22:48:48.735Z,2.89
2019-05-03T22:51:15.123Z,2.89
2019-05-03T22:53:41.306Z,3.00
2019-05-03T22:56:07.089Z,2.96
2019-05-03T22:58:32.880Z,2.96
2019-05-03T23:00:58.655Z,2.91
2019-05-03T23:03:25.036Z,2.81
2019-05-03T23:05:51.026Z,2.81
2019-05-03T23:08:16.804Z,2.73
2019-05-03T23:10:42.890Z,2.75
2019-05-03T23:13:09.263Z,2.87
2019-05-03T23:15:35.059Z,2.93
2019-05-03T23:18:01.850Z,2.79
2019-05-03T23:20:46.479Z,2.77
2019-05-03T23:23:19.688Z,2.76
2019-05-03T23:25:45.489Z,2.79
2019-05-03T23:28:12.215Z,2.74
2019-05-03T23:30:39.223Z,2.67
2019-05-03T23:33:05.012Z,2.61
2019-05-03T23:35:30.807Z,2.48
2019-05-03T23:37:56.588Z,2.30
2019-05-03T23:40:22.975Z,2.12
2019-05-03T23:42:48.923Z,2.13
2019-05-03T23:45:16.048Z,2.06
2019-05-03T23:47:45.126Z,2.04
2019-05-03T23:50:13.603Z,2.05
2019-05-03T23:52:39.384Z,2.03
2019-05-03T23:55:19.615Z,2.11
2019-05-03T23:57:45.543Z,2.11
